createdAt,value
2018-08-03T00:00:36.074Z,9.07
2018-08-03T00:03:05.956Z,9.77
2018-08-03T00:05:35.836Z,8.90
2018-08-03T00:08:05.606Z,8.83
2018-08-03T00:10:35.404Z,9.80
2018-08-03T00:13:05.317Z,8.70
2018-08-03T00:15:35.158Z,9.70
2018-08-03T00:18:04.976Z,9.03
2018-08-03T00:20:34.928Z,9.27
2018-08-03T00:23:05.009Z,8.80
2018-08-03T00:25:34.814Z,9.00
2018-08-03T00:28:04.611Z,10.13
2018-08-03T00:30:34.440Z,9.20
2018-08-03T00:33:04.177Z,9.40
2018-08-03T00:35:33.875Z,9.00
2018-08-03T00:38:03.846Z,7.80
2018-08-03T00:40:33.547Z,9.77
2018-08-03T00:43:03.334Z,9.80
2018-08-03T00:45:33.081Z,8.90
2018-08-03T00:48:02.936Z,10.00
2018-08-03T00:50:32.857Z,10.10
2018-08-03T00:53:03.054Z,10.73
2018-08-03T00:55:32.777Z,9.20
2018-08-03T00:58:02.811Z,10.00
2018-08-03T01:00:32.504Z,8.90
2018-08-03T01:03:02.298Z,9.20
2018-08-03T01:05:31.989Z,10.13
2018-08-03T01:08:01.729Z,10.03
2018-08-03T01:10:31.534Z,10.20
2018-08-03T01:13:01.403Z,10.43
2018-08-03T01:15:31.132Z,10.10
2018-08-03T01:18:00.914Z,9.50
2018-08-03T01:20:30.799Z,10.20
2018-08-03T01:23:00.567Z,9.10
2018-08-03T01:25:30.349Z,10.33
2018-08-03T01:28:00.039Z,9.97
2018-08-03T01:30:29.784Z,10.50
2018-08-03T01:32:59.549Z,10.30
2018-08-03T01:35:29.240Z,9.73
2018-08-03T01:37:59.202Z,10.50
2018-08-03T01:40:29.096Z,10.50
2018-08-03T01:42:58.841Z,10.40
2018-08-03T01:45:28.563Z,9.97
2018-08-03T01:47:58.301Z,9.70
2018-08-03T01:50:28.385Z,10.37
2018-08-03T01:52:58.245Z,12.00
2018-08-03T01:55:28.356Z,9.27
2018-08-03T01:57:58.193Z,10.03
2018-08-03T02:00:28.065Z,10.33
2018-08-03T02:02:57.979Z,9.80
2018-08-03T02:05:27.767Z,10.90
2018-08-03T02:07:57.549Z,10.03
2018-08-03T02:10:27.318Z,10.27
2018-08-03T02:12:57.096Z,11.83
2018-08-03T02:15:26.857Z,10.07
2018-08-03T02:17:56.670Z,9.20
2018-08-03T02:20:26.433Z,9.77
2018-08-03T02:22:56.227Z,8.87
2018-08-03T02:25:26.096Z,9.60
2018-08-03T02:27:55.854Z,9.23
2018-08-03T02:30:25.606Z,9.73
2018-08-03T02:32:55.409Z,8.97
2018-08-03T02:35:25.200Z,10.00
2018-08-03T02:37:55.041Z,9.97
2018-08-03T02:40:24.809Z,9.90
2018-08-03T02:42:54.577Z,9.90
2018-08-03T02:45:24.462Z,9.07
2018-08-03T02:47:54.249Z,9.03
2018-08-03T02:50:23.934Z,10.17
2018-08-03T02:52:53.985Z,10.97
2018-08-03T02:55:23.800Z,10.90
2018-08-03T02:57:53.953Z,9.90
2018-08-03T03:00:23.856Z,10.43
2018-08-03T03:02:53.639Z,9.70
2018-08-03T03:05:23.481Z,9.67
2018-08-03T03:07:53.318Z,9.53
2018-08-03T03:10:23.114Z,9.20
2018-08-03T03:12:52.925Z,9.07
2018-08-03T03:15:22.850Z,9.73
2018-08-03T03:17:52.555Z,9.30
2018-08-03T03:20:22.358Z,11.23
2018-08-03T03:22:52.263Z,10.50
2018-08-03T03:25:22.127Z,9.77
2018-08-03T03:27:51.926Z,10.13
2018-08-03T03:30:21.703Z,10.37
2018-08-03T03:32:51.650Z,8.87
2018-08-03T03:35:21.352Z,9.70
2018-08-03T03:37:51.125Z,9.20
2018-08-03T03:40:21.001Z,9.27
2018-08-03T03:42:50.756Z,9.93
2018-08-03T03:45:20.426Z,9.33
2018-08-03T03:47:50.281Z,9.80
2018-08-03T03:50:20.061Z,9.03
2018-08-03T03:52:49.990Z,8.57
2018-08-03T03:55:19.739Z,9.77
2018-08-03T03:57:49.522Z,9.63
2018-08-03T04:00:19.458Z,9.47
2018-08-03T04:02:49.418Z,10.07
2018-08-03T04:05:19.220Z,9.93
2018-08-03T04:07:48.966Z,10.60
2018-08-03T04:10:18.853Z,8.60
2018-08-03T04:12:48.665Z,9.40
2018-08-03T04:15:18.406Z,9.10
2018-08-03T04:17:48.122Z,10.73
2018-08-03T04:20:17.993Z,9.50
2018-08-03T04:22:47.726Z,8.87
2018-08-03T04:25:17.303Z,10.03
2018-08-03T04:27:47.218Z,9.87
2018-08-03T04:30:17.038Z,14.13
2018-08-03T04:32:46.903Z,8.80
2018-08-03T04:35:16.794Z,9.87
2018-08-03T04:37:46.644Z,9.97
2018-08-03T04:40:16.545Z,11.10
2018-08-03T04:42:46.267Z,9.67
2018-08-03T04:45:16.191Z,10.70
2018-08-03T04:47:45.724Z,10.63
2018-08-03T04:50:15.486Z,9.40
2018-08-03T04:52:45.298Z,9.00
2018-08-03T04:55:15.103Z,10.43
2018-08-03T04:57:44.775Z,9.60
2018-08-03T05:00:14.548Z,8.63
2018-08-03T05:02:44.305Z,7.80
2018-08-03T05:05:14.083Z,7.80
2018-08-03T05:07:43.824Z,8.23
2018-08-03T05:10:13.717Z,8.13
2018-08-03T05:12:43.547Z,10.83
2018-08-03T05:15:13.256Z,8.70
2018-08-03T05:17:43.037Z,8.90
2018-08-03T05:20:12.889Z,9.87
2018-08-03T05:22:42.659Z,10.63
2018-08-03T05:25:13.133Z,10.60
2018-08-03T05:27:43.381Z,9.37
2018-08-03T05:30:14.015Z,9.47
2018-08-03T05:32:44.639Z,9.57
2018-08-03T05:35:15.193Z,9.17
2018-08-03T05:37:46.448Z,9.37
2018-08-03T05:40:17.292Z,8.70
2018-08-03T05:42:47.767Z,9.93
2018-08-03T05:45:17.753Z,16.40
2018-08-03T05:47:47.927Z,11.00
2018-08-03T05:50:17.939Z,12.37
2018-08-03T05:52:47.725Z,10.60
2018-08-03T05:55:17.538Z,8.70
2018-08-03T05:57:47.338Z,14.07
2018-08-03T06:00:17.306Z,10.67
2018-08-03T06:02:47.318Z,10.57
2018-08-03T06:05:17.109Z,8.73
2018-08-03T06:07:47.037Z,9.50
2018-08-03T06:10:16.754Z,9.83
2018-08-03T06:12:46.563Z,9.93
2018-08-03T06:15:16.394Z,10.20
2018-08-03T06:17:46.218Z,10.20
2018-08-03T06:20:16.119Z,9.70
2018-08-03T06:22:45.925Z,10.17
2018-08-03T06:25:15.750Z,9.37
2018-08-03T06:27:45.573Z,9.37
2018-08-03T06:30:15.311Z,8.60
2018-08-03T06:32:45.167Z,10.63
2018-08-03T06:35:14.817Z,8.80
2018-08-03T06:37:44.654Z,8.07
2018-08-03T06:40:14.415Z,9.97
2018-08-03T06:42:44.208Z,9.70
2018-08-03T06:45:13.995Z,8.50
2018-08-03T06:47:43.749Z,8.40
2018-08-03T06:50:13.386Z,8.80
2018-08-03T06:52:43.237Z,9.30
2018-08-03T06:55:13.113Z,7.93
2018-08-03T06:57:42.840Z,10.03
2018-08-03T07:00:14.229Z,9.00
2018-08-03T07:02:44.210Z,8.73
2018-08-03T07:05:13.949Z,9.33
2018-08-03T07:07:43.773Z,9.20
2018-08-03T07:10:13.718Z,8.77
2018-08-03T07:12:43.567Z,9.20
2018-08-03T07:15:13.412Z,7.60
2018-08-03T07:17:43.171Z,7.93
2018-08-03T07:20:13.112Z,8.47
2018-08-03T07:22:42.969Z,7.87
2018-08-03T07:25:12.663Z,7.43
2018-08-03T07:27:42.240Z,8.20
2018-08-03T07:30:12.059Z,8.43
2018-08-03T07:32:42.233Z,8.00
2018-08-03T07:35:13.056Z,7.23
2018-08-03T07:37:43.541Z,6.80
2018-08-03T07:40:14.162Z,5.87
2018-08-03T07:42:44.664Z,6.67
2018-08-03T07:45:15.119Z,5.73
2018-08-03T07:47:46.575Z,5.23
2018-08-03T07:50:16.471Z,4.73
2018-08-03T07:52:46.197Z,5.50
2018-08-03T07:55:15.894Z,5.87
2018-08-03T07:57:46.365Z,6.07
2018-08-03T08:00:16.093Z,5.50
2018-08-03T08:02:45.932Z,5.77
2018-08-03T08:05:15.843Z,5.83
2018-08-03T08:07:45.572Z,5.73
2018-08-03T08:10:15.364Z,5.53
2018-08-03T08:12:45.067Z,5.13
2018-08-03T08:15:14.790Z,5.07
2018-08-03T08:17:44.553Z,5.77
2018-08-03T08:20:14.157Z,5.40
2018-08-03T08:22:44.020Z,5.70
2018-08-03T08:25:13.769Z,5.47
2018-08-03T08:27:43.532Z,5.30
2018-08-03T08:30:13.356Z,4.80
2018-08-03T08:32:43.118Z,4.70
2018-08-03T08:35:12.981Z,5.27
2018-08-03T08:37:42.790Z,5.00
2018-08-03T08:40:13.355Z,4.70
2018-08-03T08:42:43.584Z,5.10
2018-08-03T08:45:14.031Z,4.87
2018-08-03T08:47:45.373Z,5.03
2018-08-03T08:50:15.839Z,3.93
2018-08-03T08:52:46.284Z,5.33
2018-08-03T08:55:16.801Z,5.43
2018-08-03T08:57:48.509Z,4.90
2018-08-03T09:00:19.159Z,5.10
2018-08-03T09:02:49.882Z,5.47
2018-08-03T09:05:20.234Z,4.70
2018-08-03T09:07:51.897Z,4.73
2018-08-03T09:10:22.495Z,5.27
2018-08-03T09:12:53.327Z,5.27
2018-08-03T09:15:23.992Z,5.57
2018-08-03T09:17:55.236Z,5.87
2018-08-03T09:20:25.654Z,5.20
2018-08-03T09:22:56.213Z,5.03
2018-08-03T09:25:26.510Z,5.50
2018-08-03T09:27:57.413Z,5.67
2018-08-03T09:30:27.888Z,4.50
2018-08-03T09:32:58.815Z,5.50
2018-08-03T09:35:29.173Z,4.67
2018-08-03T09:38:00.399Z,6.37
2018-08-03T09:40:31.139Z,4.83
2018-08-03T09:43:01.728Z,4.70
2018-08-03T09:45:32.277Z,5.47
2018-08-03T09:48:03.620Z,5.10
2018-08-03T09:50:33.305Z,5.63
2018-08-03T09:53:03.067Z,4.90
2018-08-03T09:55:32.914Z,5.33
2018-08-03T09:58:03.447Z,5.13
2018-08-03T10:00:38.191Z,5.23
2018-08-03T10:03:08.737Z,4.37
2018-08-03T10:05:39.459Z,4.37
2018-08-03T10:08:09.553Z,4.90
2018-08-03T10:10:39.488Z,5.10
2018-08-03T10:13:09.676Z,5.00
2018-08-03T10:15:39.684Z,4.77
2018-08-03T10:18:09.766Z,4.77
2018-08-03T10:20:39.641Z,4.70
2018-08-03T10:23:09.701Z,4.90
2018-08-03T10:25:39.573Z,5.13
2018-08-03T10:28:09.436Z,4.93
2018-08-03T10:30:39.373Z,5.17
2018-08-03T10:33:09.259Z,5.70
2018-08-03T10:35:39.050Z,6.07
2018-08-03T10:38:08.867Z,5.50
2018-08-03T10:40:38.790Z,5.20
2018-08-03T10:43:08.895Z,4.57
2018-08-03T10:45:38.866Z,4.73
2018-08-03T10:48:08.866Z,4.63
2018-08-03T10:50:38.614Z,5.10
2018-08-03T10:53:09.098Z,4.77
2018-08-03T10:55:38.859Z,5.33
2018-08-03T10:58:08.733Z,4.60
2018-08-03T11:00:39.075Z,4.60
2018-08-03T11:03:09.304Z,4.80
2018-08-03T11:05:39.171Z,4.50
2018-08-03T11:08:09.731Z,6.00
2018-08-03T11:10:39.927Z,5.43
2018-08-03T11:13:10.433Z,4.57
2018-08-03T11:15:40.874Z,5.00
2018-08-03T11:18:11.638Z,5.13
2018-08-03T11:20:42.100Z,5.93
2018-08-03T11:23:12.757Z,5.43
2018-08-03T11:25:43.061Z,5.97
2018-08-03T11:28:13.797Z,6.50
2018-08-03T11:30:44.393Z,6.40
2018-08-03T11:33:14.835Z,5.63
2018-08-03T11:35:45.677Z,6.53
2018-08-03T11:38:16.717Z,6.87
2018-08-03T11:40:47.265Z,6.13
2018-08-03T11:43:17.760Z,5.80
2018-08-03T11:45:48.491Z,6.00
2018-08-03T11:48:19.611Z,5.83
2018-08-03T11:50:50.305Z,7.50
2018-08-03T11:53:21.053Z,6.30
2018-08-03T11:55:51.968Z,6.90
2018-08-03T11:58:22.870Z,6.50
2018-08-03T12:00:53.585Z,6.50
2018-08-03T12:03:23.951Z,6.23
2018-08-03T12:05:54.514Z,5.90
2018-08-03T12:08:25.376Z,5.30
2018-08-03T12:10:56.048Z,3.60
2018-08-03T12:13:26.467Z,3.60
2018-08-03T12:15:57.129Z,4.27
2018-08-03T12:18:29.267Z,5.03
2018-08-03T12:20:59.016Z,4.83
2018-08-03T12:23:28.887Z,4.80
2018-08-03T12:25:58.812Z,3.73
2018-08-03T12:28:30.145Z,4.10
2018-08-03T12:31:00.629Z,4.37
2018-08-03T12:33:31.322Z,4.00
2018-08-03T12:36:01.542Z,3.80
2018-08-03T12:38:32.179Z,3.90
2018-08-03T12:41:02.761Z,4.00
2018-08-03T12:43:33.531Z,3.10
2018-08-03T12:46:04.191Z,3.00
2018-08-03T12:48:35.527Z,2.37
2018-08-03T12:51:06.148Z,2.90
2018-08-03T12:53:37.078Z,2.80
2018-08-03T12:56:07.508Z,2.23
2018-08-03T12:58:39.101Z,2.50
2018-08-03T13:01:09.670Z,2.43
2018-08-03T13:03:40.089Z,2.80
2018-08-03T13:06:10.368Z,2.63
2018-08-03T13:08:41.743Z,2.83
2018-08-03T13:11:12.378Z,2.43
2018-08-03T13:13:43.045Z,3.00
2018-08-03T13:16:13.793Z,2.37
2018-08-03T13:18:44.766Z,2.63
2018-08-03T13:21:25.947Z,2.67
2018-08-03T13:24:00.393Z,3.53
2018-08-03T13:26:30.776Z,2.80
2018-08-03T13:29:01.550Z,2.23
2018-08-03T13:31:32.488Z,2.50
2018-08-03T13:34:03.189Z,2.57
2018-08-03T13:36:33.925Z,2.93
2018-08-03T13:39:05.623Z,2.10
2018-08-03T13:41:36.565Z,2.30
2018-08-03T13:44:07.092Z,2.27
2018-08-03T13:46:37.615Z,2.60
2018-08-03T13:49:08.740Z,3.10
2018-08-03T13:51:39.288Z,2.63
2018-08-03T13:54:09.928Z,2.90
2018-08-03T13:56:40.445Z,3.50
2018-08-03T13:59:11.864Z,3.00
2018-08-03T14:02:45.382Z,2.90
2018-08-03T14:05:16.142Z,3.33
2018-08-03T14:07:47.081Z,2.97
2018-08-03T14:10:17.750Z,3.30
2018-08-03T14:12:48.606Z,3.27
2018-08-03T14:15:19.339Z,3.67
2018-08-03T14:17:50.692Z,3.53
2018-08-03T14:20:20.986Z,4.00
2018-08-03T14:22:51.897Z,3.93
2018-08-03T14:25:22.146Z,4.50
2018-08-03T14:27:53.640Z,4.33
2018-08-03T14:30:24.501Z,3.83
2018-08-03T14:32:54.627Z,4.00
2018-08-03T14:35:24.915Z,4.10
2018-08-03T14:37:55.730Z,5.80
2018-08-03T14:40:26.509Z,4.30
2018-08-03T14:42:56.687Z,5.00
2018-08-03T14:45:27.006Z,4.50
2018-08-03T14:47:58.174Z,4.43
2018-08-03T14:50:28.744Z,4.13
2018-08-03T14:52:58.917Z,6.03
2018-08-03T14:55:29.449Z,5.80
2018-08-03T14:58:00.842Z,6.67
2018-08-03T15:00:32.027Z,5.50
2018-08-03T15:03:02.407Z,5.27
2018-08-03T15:05:33.080Z,7.17
2018-08-03T15:08:04.914Z,6.30
2018-08-03T15:10:35.379Z,5.93
2018-08-03T15:13:06.060Z,5.70
2018-08-03T15:15:37.446Z,6.83
2018-08-03T15:18:08.208Z,6.07
2018-08-03T15:20:38.753Z,5.23
2018-08-03T15:23:09.466Z,4.77
2018-08-03T15:25:40.085Z,5.53
2018-08-03T15:28:11.391Z,5.43
2018-08-03T15:30:41.980Z,5.30
2018-08-03T15:33:12.293Z,6.93
2018-08-03T15:35:42.731Z,4.80
2018-08-03T15:38:13.647Z,5.30
2018-08-03T15:40:43.831Z,6.10
2018-08-03T15:43:14.421Z,7.83
2018-08-03T15:45:44.468Z,5.60
2018-08-03T15:48:18.039Z,6.10
2018-08-03T15:50:48.474Z,6.37
2018-08-03T15:53:18.809Z,7.00
2018-08-03T15:55:49.121Z,5.30
2018-08-03T15:58:19.614Z,5.60
2018-08-03T16:00:49.349Z,4.57
2018-08-03T16:03:19.185Z,5.60
2018-08-03T16:05:49.028Z,5.20
2018-08-03T16:08:19.163Z,4.13
2018-08-03T16:10:49.099Z,5.03
2018-08-03T16:13:19.008Z,5.40
2018-08-03T16:15:49.093Z,5.10
2018-08-03T16:18:18.816Z,4.60
2018-08-03T16:20:48.745Z,5.10
2018-08-03T16:23:18.485Z,5.40
2018-08-03T16:25:48.261Z,5.47
2018-08-03T16:28:18.078Z,5.27
2018-08-03T16:30:47.840Z,7.07
2018-08-03T16:33:17.746Z,5.07
2018-08-03T16:35:48.047Z,7.10
2018-08-03T16:38:17.973Z,5.57
2018-08-03T16:40:47.721Z,6.83
2018-08-03T16:43:17.498Z,6.20
2018-08-03T16:45:47.366Z,5.93
2018-08-03T16:48:17.204Z,5.90
2018-08-03T16:50:47.037Z,5.43
2018-08-03T16:53:16.873Z,7.43
2018-08-03T16:55:46.743Z,7.20
2018-08-03T16:58:16.515Z,6.33
2018-08-03T17:00:46.210Z,5.60
2018-08-03T17:03:15.824Z,6.23
2018-08-03T17:05:45.665Z,7.37
2018-08-03T17:08:15.568Z,7.17
2018-08-03T17:10:46.048Z,5.77
2018-08-03T17:13:16.018Z,7.77
2018-08-03T17:15:45.788Z,7.53
2018-08-03T17:18:15.939Z,7.60
2018-08-03T17:20:46.026Z,7.80
2018-08-03T17:23:15.866Z,6.80
2018-08-03T17:25:45.775Z,6.60
2018-08-03T17:28:15.704Z,7.23
2018-08-03T17:30:45.630Z,7.83
2018-08-03T17:33:15.486Z,5.97
2018-08-03T17:35:45.326Z,6.77
2018-08-03T17:38:17.446Z,7.57
2018-08-03T17:40:47.434Z,6.70
2018-08-03T17:43:17.342Z,7.17
2018-08-03T17:45:47.229Z,8.17
2018-08-03T17:48:17.146Z,8.30
2018-08-03T17:50:46.873Z,9.13
2018-08-03T17:53:16.819Z,9.90
2018-08-03T17:55:46.759Z,11.27
2018-08-03T17:58:18.849Z,6.60
2018-08-03T18:00:48.490Z,7.60
2018-08-03T18:03:18.500Z,6.90
2018-08-03T18:05:49.159Z,6.60
2018-08-03T18:08:19.985Z,5.87
2018-08-03T18:10:50.696Z,6.30
2018-08-03T18:13:21.229Z,6.30
2018-08-03T18:15:51.157Z,6.30
2018-08-03T18:18:21.939Z,6.57
2018-08-03T18:20:51.977Z,6.97
2018-08-03T18:23:21.848Z,6.87
2018-08-03T18:25:51.710Z,7.30
2018-08-03T18:28:21.373Z,7.10
2018-08-03T18:30:51.274Z,7.37
2018-08-03T18:33:21.090Z,6.30
2018-08-03T18:35:50.759Z,7.97
2018-08-03T18:38:20.620Z,6.23
2018-08-03T18:40:50.368Z,9.27
2018-08-03T18:43:20.088Z,8.43
2018-08-03T18:45:49.952Z,8.63
2018-08-03T18:48:19.962Z,6.53
2018-08-03T18:50:49.787Z,8.10
2018-08-03T18:53:19.570Z,8.33
2018-08-03T18:55:49.575Z,8.80
2018-08-03T18:58:19.403Z,8.17
2018-08-03T19:00:49.522Z,8.63
2018-08-03T19:03:20.430Z,7.50
2018-08-03T19:05:50.563Z,7.30
2018-08-03T19:08:20.474Z,7.33
2018-08-03T19:10:50.327Z,8.40
2018-08-03T19:13:20.131Z,7.67
2018-08-03T19:15:49.929Z,8.00
2018-08-03T19:18:19.760Z,7.43
2018-08-03T19:20:49.659Z,8.73
2018-08-03T19:23:19.649Z,8.60
2018-08-03T19:25:49.481Z,8.63
2018-08-03T19:28:19.189Z,8.00
2018-08-03T19:30:49.019Z,8.97
2018-08-03T19:33:18.826Z,8.80
2018-08-03T19:35:48.555Z,8.80
2018-08-03T19:38:18.559Z,8.30
2018-08-03T19:40:48.516Z,7.20
2018-08-03T19:43:18.338Z,8.47
2018-08-03T19:45:48.106Z,9.30
2018-08-03T19:48:17.901Z,8.80
2018-08-03T19:50:47.699Z,10.13
2018-08-03T19:53:17.434Z,9.70
2018-08-03T19:55:47.117Z,9.83
2018-08-03T19:58:16.878Z,9.67
2018-08-03T20:00:46.611Z,23.27
2018-08-03T20:03:16.320Z,10.67
2018-08-03T20:05:46.052Z,11.83
2018-08-03T20:08:15.754Z,10.63
2018-08-03T20:10:45.610Z,10.37
2018-08-03T20:13:15.398Z,9.33
2018-08-03T20:15:45.410Z,8.13
2018-08-03T20:18:15.191Z,9.63
2018-08-03T20:20:45.003Z,9.70
2018-08-03T20:23:14.880Z,9.20
2018-08-03T20:25:45.292Z,8.83
2018-08-03T20:28:15.171Z,8.67
2018-08-03T20:30:45.028Z,9.90
2018-08-03T20:33:14.878Z,9.40
2018-08-03T20:35:44.610Z,8.70
2018-08-03T20:38:14.370Z,9.50
2018-08-03T20:40:44.218Z,7.63
2018-08-03T20:43:13.957Z,8.63
2018-08-03T20:45:43.804Z,7.67
2018-08-03T20:48:13.986Z,7.30
2018-08-03T20:50:43.709Z,8.27
2018-08-03T20:53:13.533Z,8.30
2018-08-03T20:55:43.307Z,7.00
2018-08-03T20:58:13.205Z,7.23
2018-08-03T21:00:43.032Z,8.00
2018-08-03T21:03:12.791Z,7.23
2018-08-03T21:05:42.511Z,7.77
2018-08-03T21:08:12.211Z,9.33
2018-08-03T21:10:42.054Z,8.00
2018-08-03T21:13:11.801Z,8.07
2018-08-03T21:15:41.668Z,8.53
2018-08-03T21:18:11.425Z,7.97
2018-08-03T21:20:41.244Z,7.30
2018-08-03T21:23:10.931Z,6.70
2018-08-03T21:25:40.862Z,8.20
2018-08-03T21:28:10.604Z,8.77
2018-08-03T21:30:40.365Z,8.10
2018-08-03T21:33:10.192Z,8.20
2018-08-03T21:35:39.999Z,7.70
2018-08-03T21:38:09.828Z,8.53
2018-08-03T21:40:39.662Z,8.70
2018-08-03T21:43:09.530Z,7.60
2018-08-03T21:45:39.430Z,8.50
2018-08-03T21:48:09.260Z,8.07
2018-08-03T21:50:39.080Z,6.77
2018-08-03T21:53:08.977Z,7.90
2018-08-03T21:55:38.875Z,7.70
2018-08-03T21:58:08.592Z,10.20
2018-08-03T22:00:38.429Z,7.50
2018-08-03T22:03:08.237Z,7.70
2018-08-03T22:05:38.099Z,7.67
2018-08-03T22:08:07.922Z,7.10
2018-08-03T22:10:37.712Z,7.50
2018-08-03T22:13:07.551Z,8.57
2018-08-03T22:15:37.296Z,8.00
2018-08-03T22:18:07.052Z,7.50
2018-08-03T22:20:36.927Z,8.60
2018-08-03T22:23:06.784Z,8.00
2018-08-03T22:25:36.685Z,8.37
2018-08-03T22:28:06.503Z,7.60
2018-08-03T22:30:36.684Z,8.33
2018-08-03T22:33:06.398Z,7.90
2018-08-03T22:35:36.235Z,7.60
2018-08-03T22:38:05.973Z,7.43
2018-08-03T22:40:35.770Z,7.77
2018-08-03T22:43:05.670Z,7.97
2018-08-03T22:45:35.543Z,7.67
2018-08-03T22:48:05.474Z,8.00
2018-08-03T22:50:35.159Z,8.40
2018-08-03T22:53:04.954Z,8.57
2018-08-03T22:55:34.828Z,8.70
2018-08-03T22:58:04.834Z,8.57
2018-08-03T23:00:35.060Z,7.70
2018-08-03T23:03:04.922Z,8.77
2018-08-03T23:05:34.656Z,8.20
2018-08-03T23:08:04.416Z,9.00
2018-08-03T23:10:34.333Z,9.13
2018-08-03T23:13:04.184Z,10.20
2018-08-03T23:15:34.016Z,9.87
2018-08-03T23:18:03.640Z,8.80
2018-08-03T23:20:33.437Z,9.43
2018-08-03T23:23:03.079Z,9.57
2018-08-03T23:25:32.732Z,7.97
2018-08-03T23:28:02.486Z,8.17
2018-08-03T23:30:32.250Z,8.13
2018-08-03T23:33:02.584Z,8.17
2018-08-03T23:35:32.403Z,8.10
2018-08-03T23:38:02.500Z,7.90
2018-08-03T23:40:32.307Z,7.70
2018-08-03T23:43:02.139Z,8.00
2018-08-03T23:45:31.970Z,8.00
2018-08-03T23:48:01.963Z,8.77
2018-08-03T23:50:31.823Z,9.93
2018-08-03T23:53:01.569Z,8.77
2018-08-03T23:55:31.267Z,8.70
2018-08-03T23:58:01.104Z,8.57
